Glendale Springs, North Carolina
Current Conditions -  °F | °C
As of 7:15 PM on Thursday 18 Dec 2014 (Local Time) from KGEV Reporting Station
Broken Clouds Broken Clouds  
Wind Chill: 29°   Ceiling: 5000
Heat Index: 37°   Visibility: 10mi
Dew Point: -3°   Wind: 13mph
Humidity: 18%   Direction: 300°WNW
Pressure: 30.06"   Gusts: 18mph
Location:  36.35°N, 81.38°W
Report Text: KGEV 190015Z AUTO 30011G16KT 240V310 10SM BKN050 BKN070 03/M19 A3006 RMK AO2 T00301194
Loading
Personal Weather Stations






























Interactive Weather Map New forecast layout! Learn more

10-Day Weather Forecast

Advertisements
Track Severe Weather on mobile